createdAt,value
2022-10-07T00:01:01.192Z,9.49
2022-10-07T00:03:28.867Z,9.48
2022-10-07T00:06:07.217Z,9.43
2022-10-07T00:08:36.320Z,9.42
2022-10-07T00:11:17.784Z,9.37
2022-10-07T00:13:46.264Z,9.37
2022-10-07T00:16:15.781Z,9.35
2022-10-07T00:18:42.370Z,9.33
2022-10-07T00:21:15.495Z,9.32
2022-10-07T00:23:43.725Z,9.31
2022-10-07T00:26:13.229Z,9.29
2022-10-07T00:28:39.770Z,9.19
2022-10-07T00:31:12.927Z,9.23
2022-10-07T00:33:39.912Z,9.13
2022-10-07T00:36:08.506Z,9.14
2022-10-07T00:38:35.566Z,9.13
2022-10-07T00:41:02.075Z,9.10
2022-10-07T00:43:31.475Z,9.06
2022-10-07T00:46:08.100Z,9.03
2022-10-07T00:48:36.939Z,9.02
2022-10-07T00:51:03.720Z,9.01
2022-10-07T00:53:32.703Z,9.02
2022-10-07T00:56:03.992Z,9.01
2022-10-07T00:58:33.773Z,9.01
2022-10-07T01:01:00.802Z,8.98
2022-10-07T01:03:28.206Z,8.97
2022-10-07T01:05:54.944Z,8.95
2022-10-07T01:08:22.975Z,8.95
2022-10-07T01:11:14.082Z,8.89
2022-10-07T01:14:03.755Z,8.86
2022-10-07T01:17:00.919Z,8.89
2022-10-07T01:20:03.166Z,9.09
2022-10-07T01:22:32.726Z,8.95
2022-10-07T01:25:27.103Z,8.87
2022-10-07T01:27:58.682Z,8.86
2022-10-07T01:30:25.500Z,8.83
2022-10-07T01:32:59.321Z,8.79
2022-10-07T01:35:32.791Z,8.79
2022-10-07T01:38:05.594Z,8.79
2022-10-07T01:40:40.614Z,8.71
2022-10-07T01:43:07.456Z,8.70
2022-10-07T01:45:39.206Z,8.69
2022-10-07T01:48:05.918Z,8.68
2022-10-07T01:50:33.502Z,8.66
2022-10-07T01:53:39.269Z,8.63
2022-10-07T01:56:33.399Z,8.61
2022-10-07T01:59:21.369Z,8.60
2022-10-07T02:02:11.743Z,8.58
2022-10-07T02:04:44.180Z,8.58
2022-10-07T02:07:35.995Z,8.54
2022-10-07T02:10:22.724Z,8.51
2022-10-07T02:12:57.385Z,8.50
2022-10-07T02:15:42.852Z,8.45
2022-10-07T02:18:15.445Z,8.50
2022-10-07T02:20:46.435Z,8.48
2022-10-07T02:23:14.405Z,8.38
2022-10-07T02:25:46.716Z,8.39
2022-10-07T02:28:16.217Z,8.38
2022-10-07T02:30:47.137Z,8.37
2022-10-07T02:33:14.657Z,8.37
2022-10-07T02:35:51.156Z,8.35
2022-10-07T02:38:18.564Z,8.36
2022-10-07T02:40:48.137Z,8.35
2022-10-07T02:43:39.248Z,8.33
2022-10-07T02:46:27.073Z,8.31
2022-10-07T02:49:00.664Z,8.30
2022-10-07T02:51:29.947Z,8.23
2022-10-07T02:53:57.807Z,8.26
2022-10-07T02:56:27.284Z,8.23
2022-10-07T02:58:54.293Z,8.24
2022-10-07T03:01:25.221Z,8.24
2022-10-07T03:03:51.982Z,8.22
2022-10-07T03:06:19.104Z,8.18
2022-10-07T03:08:47.771Z,8.19
2022-10-07T03:11:14.361Z,8.17
2022-10-07T03:13:40.848Z,8.15
2022-10-07T03:16:07.474Z,8.11
2022-10-07T03:18:34.539Z,8.11
2022-10-07T03:21:01.153Z,8.09
2022-10-07T03:23:29.544Z,8.08
2022-10-07T03:25:58.265Z,8.06
2022-10-07T03:28:29.059Z,8.03
2022-10-07T03:31:07.572Z,7.99
2022-10-07T03:33:35.699Z,8.00
2022-10-07T03:36:02.338Z,7.97
2022-10-07T03:38:28.910Z,7.93
2022-10-07T03:40:55.470Z,7.92
2022-10-07T03:43:22.024Z,7.93
2022-10-07T03:45:51.793Z,7.94
2022-10-07T03:48:18.737Z,7.92
2022-10-07T03:50:52.623Z,7.90
2022-10-07T03:53:20.410Z,7.92
2022-10-07T03:55:47.074Z,7.92
2022-10-07T03:58:13.610Z,7.92
2022-10-07T04:00:41.215Z,7.95
2022-10-07T04:03:08.201Z,8.25
2022-10-07T04:05:36.333Z,8.15
2022-10-07T04:08:04.880Z,8.08
2022-10-07T04:10:32.064Z,8.03
2022-10-07T04:12:58.666Z,8.00
2022-10-07T04:15:25.697Z,7.99
2022-10-07T04:17:58.691Z,7.96
2022-10-07T04:20:26.303Z,7.92
2022-10-07T04:22:53.108Z,7.89
2022-10-07T04:25:35.224Z,7.87
2022-10-07T04:28:07.907Z,7.80
2022-10-07T04:30:39.858Z,7.76
2022-10-07T04:33:07.693Z,7.77
2022-10-07T04:35:37.141Z,7.74
2022-10-07T04:38:03.890Z,7.72
2022-10-07T04:40:31.116Z,7.70
2022-10-07T04:43:16.502Z,7.68
2022-10-07T04:45:43.047Z,7.64
2022-10-07T04:48:09.980Z,7.63
2022-10-07T04:50:39.610Z,7.60
2022-10-07T04:53:10.859Z,7.57
2022-10-07T04:55:42.623Z,7.58
2022-10-07T04:58:09.240Z,7.94
2022-10-07T05:00:40.850Z,8.77
2022-10-07T05:03:07.418Z,10.02
2022-10-07T05:05:34.532Z,10.30
2022-10-07T05:08:01.060Z,10.61
2022-10-07T05:10:27.594Z,10.84
2022-10-07T05:12:56.183Z,10.95
2022-10-07T05:15:23.552Z,11.06
2022-10-07T05:17:50.328Z,11.13
2022-10-07T05:20:16.961Z,11.17
2022-10-07T05:22:43.513Z,11.27
2022-10-07T05:25:10.022Z,11.29
2022-10-07T05:27:36.572Z,11.23
2022-10-07T05:30:03.523Z,11.18
2022-10-07T05:32:30.042Z,11.15
2022-10-07T05:34:56.594Z,11.10
2022-10-07T05:37:23.508Z,11.00
2022-10-07T05:39:50.022Z,11.17
2022-10-07T05:42:16.592Z,11.32
2022-10-07T05:44:43.262Z,11.49
2022-10-07T05:47:09.785Z,11.61
2022-10-07T05:49:36.373Z,11.55
2022-10-07T05:52:03.685Z,11.20
2022-10-07T05:54:30.394Z,10.67
2022-10-07T05:56:57.047Z,10.09
2022-10-07T05:59:23.570Z,9.62
2022-10-07T06:01:50.160Z,9.23
2022-10-07T06:04:16.685Z,9.03
2022-10-07T06:06:43.285Z,8.85
2022-10-07T06:09:29.916Z,8.66
2022-10-07T06:12:14.953Z,8.46
2022-10-07T06:14:42.117Z,8.40
2022-10-07T06:17:08.713Z,8.43
2022-10-07T06:19:37.615Z,8.36
2022-10-07T06:22:04.657Z,8.31
2022-10-07T06:24:33.827Z,8.27
2022-10-07T06:27:00.357Z,8.32
2022-10-07T06:29:27.044Z,8.39
2022-10-07T06:31:53.573Z,8.36
2022-10-07T06:34:20.124Z,8.45
2022-10-07T06:36:46.718Z,8.54
2022-10-07T06:39:13.232Z,8.55
2022-10-07T06:41:39.809Z,8.50
2022-10-07T06:44:06.375Z,8.47
2022-10-07T06:46:32.890Z,8.46
2022-10-07T06:48:59.448Z,8.51
2022-10-07T06:51:26.002Z,8.59
2022-10-07T06:53:56.495Z,8.66
2022-10-07T06:56:23.080Z,8.64
2022-10-07T06:58:50.062Z,8.59
2022-10-07T07:01:17.267Z,8.55
2022-10-07T07:03:43.917Z,8.51
2022-10-07T07:06:13.833Z,8.52
2022-10-07T07:08:41.382Z,8.51
2022-10-07T07:11:31.365Z,8.52
2022-10-07T07:13:58.496Z,8.76
2022-10-07T07:16:25.413Z,9.53
2022-10-07T07:18:53.782Z,9.56
2022-10-07T07:21:21.030Z,9.66
2022-10-07T07:23:47.713Z,9.66
2022-10-07T07:26:14.826Z,9.67
2022-10-07T07:28:41.723Z,9.76
2022-10-07T07:31:10.182Z,9.96
2022-10-07T07:33:38.405Z,10.20
2022-10-07T07:36:15.940Z,10.40
2022-10-07T07:38:43.603Z,10.45
2022-10-07T07:41:10.977Z,10.57
2022-10-07T07:43:37.596Z,10.75
2022-10-07T07:46:04.972Z,10.87
2022-10-07T07:48:31.650Z,11.28
2022-10-07T07:50:58.205Z,11.27
2022-10-07T07:53:24.719Z,11.33
2022-10-07T07:55:58.218Z,11.34
2022-10-07T07:58:25.000Z,11.39
2022-10-07T08:01:07.533Z,11.43
2022-10-07T08:03:38.614Z,11.49
2022-10-07T08:06:07.031Z,11.52
2022-10-07T08:08:34.464Z,11.88
2022-10-07T08:11:28.245Z,12.19
2022-10-07T08:13:56.139Z,12.64
2022-10-07T08:16:25.033Z,13.08
2022-10-07T08:18:51.910Z,13.33
2022-10-07T08:21:22.022Z,13.41
2022-10-07T08:23:52.375Z,13.20
2022-10-07T08:26:18.968Z,13.03
2022-10-07T08:28:46.491Z,12.86
2022-10-07T08:31:17.263Z,12.75
2022-10-07T08:33:46.051Z,12.79
2022-10-07T08:36:15.182Z,12.67
2022-10-07T08:38:42.010Z,12.73
2022-10-07T08:41:34.321Z,13.03
2022-10-07T08:44:17.744Z,13.52
2022-10-07T08:46:51.004Z,13.92
2022-10-07T08:49:24.374Z,14.22
2022-10-07T08:51:58.450Z,14.41
2022-10-07T08:54:26.777Z,14.45
2022-10-07T08:56:55.774Z,14.45
2022-10-07T08:59:30.347Z,14.42
2022-10-07T09:02:24.696Z,14.46
2022-10-07T09:05:02.430Z,14.63
2022-10-07T09:07:47.888Z,14.79
2022-10-07T09:10:38.872Z,14.93
2022-10-07T09:13:17.917Z,14.97
2022-10-07T09:15:44.471Z,15.10
2022-10-07T09:18:19.564Z,15.02
2022-10-07T09:20:53.533Z,15.02
2022-10-07T09:23:25.950Z,15.18
2022-10-07T09:25:52.791Z,15.44
2022-10-07T09:28:25.601Z,15.57
2022-10-07T09:30:52.383Z,15.58
2022-10-07T09:33:21.845Z,15.42
2022-10-07T09:35:57.545Z,15.35
2022-10-07T09:38:41.023Z,15.35
2022-10-07T09:41:21.914Z,15.38
2022-10-07T09:43:59.445Z,15.52
2022-10-07T09:47:09.759Z,15.67
2022-10-07T09:49:42.051Z,15.67
2022-10-07T09:52:14.645Z,15.73
2022-10-07T09:54:42.697Z,15.81
2022-10-07T09:57:29.371Z,15.90
2022-10-07T10:00:13.918Z,16.07
2022-10-07T10:02:43.369Z,16.21
2022-10-07T10:05:41.149Z,16.29
2022-10-07T10:08:23.919Z,16.27
2022-10-07T10:10:52.091Z,16.33
2022-10-07T10:13:40.622Z,16.26
2022-10-07T10:16:34.368Z,16.25
2022-10-07T10:19:20.580Z,16.35
2022-10-07T10:22:00.453Z,16.48
2022-10-07T10:24:49.950Z,16.46
2022-10-07T10:27:26.006Z,16.34
2022-10-07T10:29:55.206Z,16.40
2022-10-07T10:32:27.388Z,16.52
2022-10-07T10:35:00.522Z,16.64
2022-10-07T10:37:42.025Z,16.70
2022-10-07T10:40:41.285Z,16.85
2022-10-07T10:43:13.690Z,17.08
2022-10-07T10:46:19.494Z,17.27
2022-10-07T10:49:19.619Z,17.30
2022-10-07T10:52:18.069Z,17.27
2022-10-07T10:54:58.071Z,17.30
2022-10-07T10:58:09.733Z,17.27
2022-10-07T11:01:05.271Z,17.30
2022-10-07T11:03:45.130Z,17.35
2022-10-07T11:06:16.445Z,17.53
2022-10-07T11:08:43.713Z,17.60
2022-10-07T11:11:21.831Z,17.79
2022-10-07T11:14:07.347Z,17.93
2022-10-07T11:16:39.921Z,18.04
2022-10-07T11:19:20.890Z,18.12
2022-10-07T11:21:51.027Z,18.27
2022-10-07T11:24:26.814Z,18.37
2022-10-07T11:26:59.747Z,18.56
2022-10-07T11:29:34.072Z,18.76
2022-10-07T11:32:20.651Z,18.92
2022-10-07T11:35:05.042Z,18.91
2022-10-07T11:37:40.100Z,18.85
2022-10-07T11:40:07.814Z,18.71
2022-10-07T11:42:43.098Z,18.62
2022-10-07T11:45:21.323Z,18.58
2022-10-07T11:47:56.290Z,18.68
2022-10-07T11:50:29.315Z,18.77
2022-10-07T11:53:03.634Z,18.94
2022-10-07T11:55:40.251Z,19.18
2022-10-07T11:58:23.969Z,19.34
2022-10-07T12:00:50.677Z,19.42
2022-10-07T12:03:20.284Z,19.49
2022-10-07T12:05:49.949Z,19.57
2022-10-07T12:08:19.223Z,19.59
2022-10-07T12:10:45.762Z,19.65
2022-10-07T12:13:12.271Z,19.70
2022-10-07T12:15:43.126Z,19.77
2022-10-07T12:18:10.505Z,19.77
2022-10-07T12:20:58.706Z,19.81
2022-10-07T12:23:32.238Z,20.01
2022-10-07T12:26:04.636Z,20.18
2022-10-07T12:28:35.152Z,20.16
2022-10-07T12:31:15.400Z,20.19
2022-10-07T12:33:45.323Z,20.21
2022-10-07T12:36:21.407Z,20.11
2022-10-07T12:38:59.319Z,19.98
2022-10-07T12:41:28.108Z,20.03
2022-10-07T12:44:00.495Z,20.04
2022-10-07T12:46:32.706Z,20.06
2022-10-07T12:49:17.378Z,20.03
2022-10-07T12:51:45.018Z,20.07
2022-10-07T12:54:20.262Z,20.14
2022-10-07T12:56:47.984Z,20.21
2022-10-07T12:59:47.019Z,20.33
2022-10-07T13:02:46.720Z,20.52
2022-10-07T13:05:41.479Z,20.50
2022-10-07T13:08:35.618Z,20.51
2022-10-07T13:11:49.395Z,20.62
2022-10-07T13:14:37.772Z,20.83
2022-10-07T13:17:17.576Z,21.06
2022-10-07T13:19:50.008Z,21.27
2022-10-07T13:22:18.455Z,21.46
2022-10-07T13:24:54.873Z,21.78
2022-10-07T13:27:27.789Z,21.78
2022-10-07T13:29:56.379Z,21.78
2022-10-07T13:32:29.716Z,22.19
2022-10-07T13:35:01.329Z,22.67
2022-10-07T13:37:33.758Z,22.86
2022-10-07T13:40:20.904Z,22.99
2022-10-07T13:42:59.867Z,23.08
2022-10-07T13:45:28.268Z,22.97
2022-10-07T13:47:57.101Z,22.93
2022-10-07T13:50:30.687Z,23.05
2022-10-07T13:52:58.162Z,23.34
2022-10-07T13:55:35.842Z,23.40
2022-10-07T13:58:04.528Z,23.46
2022-10-07T14:00:40.479Z,23.56
2022-10-07T14:03:15.073Z,23.81
2022-10-07T14:05:51.587Z,24.11
2022-10-07T14:08:21.542Z,24.55
2022-10-07T14:10:59.630Z,24.94
2022-10-07T14:13:29.006Z,25.26
2022-10-07T14:15:58.475Z,25.46
2022-10-07T14:18:29.566Z,25.48
2022-10-07T14:21:07.784Z,25.44
2022-10-07T14:23:36.459Z,25.58
2022-10-07T14:26:07.112Z,25.88
2022-10-07T14:28:36.209Z,26.13
2022-10-07T14:31:27.692Z,26.22
2022-10-07T14:34:33.056Z,26.40
2022-10-07T14:37:19.837Z,26.09
2022-10-07T14:39:48.747Z,25.91
2022-10-07T14:42:21.655Z,25.56
2022-10-07T14:44:49.003Z,25.23
2022-10-07T14:47:21.161Z,24.77
2022-10-07T14:49:48.727Z,24.49
2022-10-07T14:52:22.534Z,24.16
2022-10-07T14:54:51.985Z,23.93
2022-10-07T14:57:18.815Z,23.70
2022-10-07T14:59:47.808Z,23.49
2022-10-07T15:02:14.394Z,23.17
2022-10-07T15:04:44.235Z,22.90
2022-10-07T15:07:15.873Z,22.72
2022-10-07T15:09:44.361Z,22.63
2022-10-07T15:12:15.955Z,22.64
2022-10-07T15:14:42.813Z,22.64
2022-10-07T15:17:12.348Z,22.60
2022-10-07T15:19:39.003Z,22.50
2022-10-07T15:22:05.795Z,22.35
2022-10-07T15:24:33.218Z,22.21
2022-10-07T15:27:00.089Z,22.04
2022-10-07T15:29:26.933Z,21.79
2022-10-07T15:31:53.817Z,21.59
2022-10-07T15:34:20.600Z,21.38
2022-10-07T15:36:48.068Z,21.22
2022-10-07T15:39:14.621Z,21.08
2022-10-07T15:41:42.725Z,20.91
2022-10-07T15:44:18.349Z,20.68
2022-10-07T15:46:48.911Z,20.58
2022-10-07T15:49:18.799Z,20.45
2022-10-07T15:51:46.730Z,20.29
2022-10-07T15:54:13.577Z,20.12
2022-10-07T15:56:40.533Z,20.00
2022-10-07T15:59:07.157Z,19.84
2022-10-07T16:01:33.784Z,19.73
2022-10-07T16:04:02.511Z,19.61
2022-10-07T16:06:32.637Z,19.47
2022-10-07T16:09:00.429Z,19.36
2022-10-07T16:11:28.899Z,19.27
2022-10-07T16:13:55.696Z,19.20
2022-10-07T16:16:25.594Z,19.12
2022-10-07T16:18:56.426Z,19.06
2022-10-07T16:21:28.012Z,19.00
2022-10-07T16:24:03.405Z,18.87
2022-10-07T16:26:30.808Z,18.78
2022-10-07T16:29:18.027Z,18.72
2022-10-07T16:31:46.214Z,18.64
2022-10-07T16:34:15.110Z,18.55
2022-10-07T16:36:45.559Z,18.42
2022-10-07T16:39:12.742Z,18.30
2022-10-07T16:41:42.822Z,18.18
2022-10-07T16:44:09.773Z,18.03
2022-10-07T16:46:36.858Z,17.89
2022-10-07T16:49:08.566Z,17.73
2022-10-07T16:51:36.794Z,17.59
2022-10-07T16:54:05.885Z,17.42
2022-10-07T16:56:34.734Z,17.27
2022-10-07T16:59:04.251Z,17.10
2022-10-07T17:01:31.392Z,16.94
2022-10-07T17:03:59.619Z,16.82
2022-10-07T17:06:29.014Z,16.69
2022-10-07T17:08:57.898Z,16.60
2022-10-07T17:11:30.293Z,16.50
2022-10-07T17:14:20.616Z,16.37
2022-10-07T17:16:49.905Z,16.32
2022-10-07T17:19:19.471Z,16.27
2022-10-07T17:21:47.952Z,16.22
2022-10-07T17:24:15.849Z,16.15
2022-10-07T17:26:42.901Z,16.08
2022-10-07T17:29:12.190Z,16.01
2022-10-07T17:31:42.572Z,15.94
2022-10-07T17:34:11.667Z,15.89
2022-10-07T17:36:39.333Z,15.83
2022-10-07T17:39:06.303Z,15.79
2022-10-07T17:41:34.841Z,15.74
2022-10-07T17:44:08.259Z,15.67
2022-10-07T17:46:36.666Z,15.61
2022-10-07T17:49:03.768Z,15.56
2022-10-07T17:51:31.875Z,15.55
2022-10-07T17:54:03.608Z,15.53
2022-10-07T17:56:37.398Z,15.55
2022-10-07T17:59:05.403Z,15.52
2022-10-07T18:01:36.230Z,15.50
2022-10-07T18:04:10.950Z,15.47
2022-10-07T18:06:39.189Z,15.45
2022-10-07T18:09:08.229Z,15.42
2022-10-07T18:11:54.303Z,15.40
2022-10-07T18:14:39.685Z,15.36
2022-10-07T18:17:08.180Z,15.32
2022-10-07T18:19:34.857Z,15.31
2022-10-07T18:22:03.007Z,15.29
2022-10-07T18:24:29.814Z,15.29
2022-10-07T18:26:58.974Z,15.29
2022-10-07T18:29:30.707Z,15.32
2022-10-07T18:31:57.452Z,15.36
2022-10-07T18:34:24.641Z,15.39
2022-10-07T18:36:55.923Z,15.42
2022-10-07T18:39:23.135Z,15.44
2022-10-07T18:41:49.685Z,15.47
2022-10-07T18:44:16.345Z,15.48
2022-10-07T18:46:42.936Z,15.46
2022-10-07T18:49:09.667Z,15.45
2022-10-07T18:51:36.298Z,15.40
2022-10-07T18:54:02.877Z,15.34
2022-10-07T18:56:29.434Z,15.33
2022-10-07T18:58:56.033Z,15.30
2022-10-07T19:01:24.888Z,15.28
2022-10-07T19:03:56.321Z,15.25
2022-10-07T19:06:25.587Z,15.19
2022-10-07T19:09:00.677Z,15.11
2022-10-07T19:11:29.265Z,15.07
2022-10-07T19:13:58.896Z,15.06
2022-10-07T19:16:36.305Z,15.05
2022-10-07T19:19:08.561Z,15.07
2022-10-07T19:21:35.856Z,15.08
2022-10-07T19:24:03.645Z,15.08
2022-10-07T19:26:42.850Z,15.10
2022-10-07T19:29:10.790Z,15.15
2022-10-07T19:31:40.628Z,15.18
2022-10-07T19:34:13.630Z,15.21
2022-10-07T19:36:42.487Z,15.24
2022-10-07T19:39:10.687Z,15.26
2022-10-07T19:41:37.634Z,15.27
2022-10-07T19:44:04.812Z,15.28
2022-10-07T19:46:33.476Z,15.28
2022-10-07T19:49:02.035Z,15.29
2022-10-07T19:51:31.202Z,15.28
2022-10-07T19:53:59.758Z,15.28
2022-10-07T19:56:29.518Z,15.23
2022-10-07T19:59:02.576Z,15.18
2022-10-07T20:01:34.098Z,15.16
2022-10-07T20:04:06.416Z,15.14
2022-10-07T20:06:36.979Z,15.12
2022-10-07T20:09:05.817Z,15.15
2022-10-07T20:11:32.778Z,15.17
2022-10-07T20:13:59.973Z,15.20
2022-10-07T20:16:27.633Z,15.23
2022-10-07T20:19:01.187Z,15.22
2022-10-07T20:21:28.805Z,15.20
2022-10-07T20:23:55.468Z,15.20
2022-10-07T20:26:30.625Z,15.19
2022-10-07T20:28:59.575Z,15.20
2022-10-07T20:31:29.325Z,15.22
2022-10-07T20:33:57.743Z,15.22
2022-10-07T20:36:30.081Z,15.22
2022-10-07T20:39:39.406Z,15.19
2022-10-07T20:42:22.394Z,15.16
2022-10-07T20:44:49.743Z,15.08
2022-10-07T20:47:16.810Z,15.04
2022-10-07T20:49:43.410Z,15.00
2022-10-07T20:52:16.979Z,14.96
2022-10-07T20:54:44.718Z,14.96
2022-10-07T20:57:17.240Z,14.94
2022-10-07T20:59:44.216Z,14.96
2022-10-07T21:02:13.576Z,14.99
2022-10-07T21:04:40.540Z,15.00
2022-10-07T21:07:08.296Z,15.03
2022-10-07T21:09:37.678Z,15.04
2022-10-07T21:12:07.718Z,15.02
2022-10-07T21:14:35.389Z,15.00
2022-10-07T21:17:02.281Z,14.98
2022-10-07T21:19:31.672Z,14.97
2022-10-07T21:21:58.507Z,14.94
2022-10-07T21:24:25.142Z,14.93
2022-10-07T21:26:51.665Z,14.84
2022-10-07T21:29:19.032Z,14.76
2022-10-07T21:31:45.625Z,14.65
2022-10-07T21:34:12.158Z,14.55
2022-10-07T21:36:42.606Z,14.47
2022-10-07T21:39:11.254Z,14.37
2022-10-07T21:41:38.768Z,14.29
2022-10-07T21:44:12.199Z,14.23
2022-10-07T21:46:40.126Z,14.17
2022-10-07T21:49:07.782Z,14.08
2022-10-07T21:51:35.332Z,14.02
2022-10-07T21:54:02.616Z,13.96
2022-10-07T21:56:31.236Z,13.91
2022-10-07T21:59:04.058Z,13.82
2022-10-07T22:01:32.151Z,13.73
2022-10-07T22:04:01.635Z,13.67
2022-10-07T22:06:48.982Z,13.65
2022-10-07T22:09:18.439Z,13.61
2022-10-07T22:11:45.298Z,13.58
2022-10-07T22:14:13.011Z,13.56
2022-10-07T22:16:40.341Z,13.52
2022-10-07T22:19:07.029Z,13.52
2022-10-07T22:21:38.353Z,13.51
2022-10-07T22:24:07.061Z,13.48
2022-10-07T22:26:48.190Z,13.46
2022-10-07T22:29:16.676Z,13.46
2022-10-07T22:31:43.763Z,13.51
2022-10-07T22:34:33.638Z,13.54
2022-10-07T22:37:00.301Z,13.57
2022-10-07T22:39:28.722Z,13.61
2022-10-07T22:41:55.378Z,13.66
2022-10-07T22:44:21.908Z,13.68
2022-10-07T22:46:48.852Z,13.71
2022-10-07T22:49:15.512Z,13.71
2022-10-07T22:51:42.560Z,13.74
2022-10-07T22:54:12.301Z,13.79
2022-10-07T22:56:39.839Z,13.86
2022-10-07T22:59:08.485Z,13.92
2022-10-07T23:01:35.233Z,13.98
2022-10-07T23:04:03.290Z,14.05
2022-10-07T23:06:33.057Z,14.09
2022-10-07T23:09:00.484Z,14.08
2022-10-07T23:11:28.577Z,14.08
2022-10-07T23:13:55.571Z,14.06
2022-10-07T23:16:25.135Z,14.03
2022-10-07T23:18:55.483Z,13.98
2022-10-07T23:21:27.225Z,13.87
2022-10-07T23:24:05.967Z,13.82
2022-10-07T23:26:34.219Z,13.79
2022-10-07T23:29:01.478Z,13.81
2022-10-07T23:31:30.408Z,13.79
2022-10-07T23:33:58.579Z,13.77
2022-10-07T23:36:25.762Z,13.74
2022-10-07T23:38:53.079Z,13.72
2022-10-07T23:41:24.756Z,13.65
2022-10-07T23:43:52.843Z,13.56
2022-10-07T23:46:20.591Z,13.45
2022-10-07T23:48:47.213Z,13.33
2022-10-07T23:51:16.258Z,13.18
2022-10-07T23:53:42.800Z,13.07
2022-10-07T23:56:09.522Z,12.96
2022-10-07T23:58:36.899Z,12.86
